Climatologie pour Saint-Brevin les Pins
Jour • Résumé pour avril 29, 2017 Système :  Métrique    Anglais   Mixte
« - 1 jour
+ 1 jour »
Jour Semaine Mois Année Personnalisé
  Maximum : Minimum : Moyenne :
Température sous abri : 19.4 °C 2.7 °C 11 °C
Point de rosée : 9.4 °C 2.0 °C 4.9 °C
Humidité : 97 % 36 % 70 %
Vitesse du vent : 24.1 km/h 0.0 km/h 5.5 km/h
Rafale : 32.2 km/h - -
Direction :- - SSE
Pression : 1018.2 hPa 1004.6 hPa -
Précipitations : 0.0 mm    
Historical Graphs
 
 
Tableau de données pour avril 29, 2017
Heure Tempé Pt rosée Pression Vent Vitesse Rafale Humidité Taux pluie (/hr) Soleil
00:00 5.1 °C 4.2 °C 1018.2 hPa Calm     94 % 0.0 mm 0 W/m2
00:10 4.7 °C 4.0 °C 1018.2 hPa WNW 1.6 km/h 1.6 km/h 95 % 0.0 mm 0 W/m2
00:15 4.8 °C 4.1 °C 1018.2 hPa Calm   1.6 km/h 95 % 0.0 mm 0 W/m2
00:20 4.8 °C 4.1 °C 1018.2 hPa Calm     95 % 0.0 mm 0 W/m2
00:25 4.7 °C 3.9 °C 1018.2 hPa Calm     95 % 0.0 mm 0 W/m2
00:30 4.6 °C 3.9 °C 1018.2 hPa Calm   1.6 km/h 95 % 0.0 mm 0 W/m2
00:35 4.9 °C 4.4 °C 1018.2 hPa Calm   1.6 km/h 96 % 0.0 mm 0 W/m2
00:40 4.8 °C 4.1 °C 1018.2 hPa SW 1.6 km/h 3.2 km/h 95 % 0.0 mm 0 W/m2
00:50 4.9 °C 4.2 °C 1018.2 hPa SW 1.6 km/h 3.2 km/h 95 % 0.0 mm 0 W/m2
00:55 5.0 °C 4.3 °C 1018.2 hPa Calm   3.2 km/h 95 % 0.0 mm 0 W/m2
01:00 5.0 °C 4.3 °C 1018.2 hPa Calm   3.2 km/h 95 % 0.0 mm 0 W/m2
01:05 4.9 °C 4.2 °C 1018.2 hPa Calm   1.6 km/h 95 % 0.0 mm 0 W/m2
01:10 4.7 °C 4.0 °C 1018.2 hPa Calm     95 % 0.0 mm 0 W/m2
01:15 4.4 °C 3.7 °C 1018.2 hPa Calm     95 % 0.0 mm 0 W/m2
01:20 4.2 °C 3.5 °C 1018.2 hPa Calm     95 % 0.0 mm 0 W/m2
01:25 4.4 °C 3.9 °C 1018.2 hPa Calm     96 % 0.0 mm 0 W/m2
01:35 4.4 °C 3.7 °C 1018.2 hPa Calm   1.6 km/h 95 % 0.0 mm 0 W/m2
01:40 4.4 °C 3.7 °C 1017.8 hPa Calm   1.6 km/h 95 % 0.0 mm 0 W/m2
01:45 4.3 °C 3.6 °C 1017.8 hPa Calm   1.6 km/h 95 % 0.0 mm 0 W/m2
01:50 4.2 °C 3.4 °C 1017.8 hPa SW 1.6 km/h 1.6 km/h 95 % 0.0 mm 0 W/m2
01:55 3.9 °C 3.2 °C 1017.8 hPa Calm   3.2 km/h 95 % 0.0 mm 0 W/m2
02:00 4.2 °C 3.6 °C 1017.8 hPa SW 1.6 km/h 3.2 km/h 96 % 0.0 mm 0 W/m2
02:05 4.3 °C 3.5 °C 1017.8 hPa SW 3.2 km/h 4.8 km/h 95 % 0.0 mm 0 W/m2
02:10 4.4 °C 3.8 °C 1017.8 hPa Calm   4.8 km/h 96 % 0.0 mm 0 W/m2
02:20 4.3 °C 3.7 °C 1017.8 hPa Calm   1.6 km/h 96 % 0.0 mm 0 W/m2
02:25 4.3 °C 3.5 °C 1017.8 hPa Calm   1.6 km/h 95 % 0.0 mm 0 W/m2
02:30 4.3 °C 3.7 °C 1017.5 hPa Calm     96 % 0.0 mm 0 W/m2
02:35 4.2 °C 3.5 °C 1017.5 hPa Calm     95 % 0.0 mm 0 W/m2
02:40 4.1 °C 3.3 °C 1017.5 hPa Calm     95 % 0.0 mm 0 W/m2
02:45 3.8 °C 3.1 °C 1017.5 hPa Calm     95 % 0.0 mm 0 W/m2
02:50 3.7 °C 3.0 °C 1017.5 hPa Calm     95 % 0.0 mm 0 W/m2
02:55 3.6 °C 2.8 °C 1017.5 hPa Calm     95 % 0.0 mm 0 W/m2
03:05 3.4 °C 2.7 °C 1017.5 hPa Calm   1.6 km/h 95 % 0.0 mm 0 W/m2
03:10 3.4 °C 2.9 °C 1017.5 hPa Calm   1.6 km/h 96 % 0.0 mm 0 W/m2
03:15 3.6 °C 3.0 °C 1017.5 hPa Calm   1.6 km/h 96 % 0.0 mm 0 W/m2
03:20 3.6 °C 3.0 °C 1017.2 hPa Calm     96 % 0.0 mm 0 W/m2
03:25 3.6 °C 3.0 °C 1017.2 hPa Calm     96 % 0.0 mm 0 W/m2
03:30 3.4 °C 2.7 °C 1017.2 hPa Calm     95 % 0.0 mm 0 W/m2
03:35 3.3 °C 2.6 °C 1017.2 hPa Calm     95 % 0.0 mm 0 W/m2
03:40 3.5 °C 2.9 °C 1017.2 hPa Calm     96 % 0.0 mm 0 W/m2
03:50 3.4 °C 2.7 °C 1017.2 hPa Calm   1.6 km/h 95 % 0.0 mm 0 W/m2
03:55 3.3 °C 2.8 °C 1016.8 hPa Calm   1.6 km/h 96 % 0.0 mm 0 W/m2
04:00 3.3 °C 2.6 °C 1016.8 hPa Calm     95 % 0.0 mm 0 W/m2
04:05 3.0 °C 2.3 °C 1016.8 hPa Calm     95 % 0.0 mm 0 W/m2
04:10 2.8 °C 2.1 °C 1016.8 hPa Calm     95 % 0.0 mm 0 W/m2
04:15 2.7 °C 2.0 °C 1016.5 hPa Calm     95 % 0.0 mm 0 W/m2
04:20 2.7 °C 2.1 °C 1016.5 hPa Calm   1.6 km/h 96 % 0.0 mm 0 W/m2
04:25 2.8 °C 2.2 °C 1016.5 hPa Calm   1.6 km/h 96 % 0.0 mm 0 W/m2
04:35 3.1 °C 2.5 °C 1016.5 hPa Calm   3.2 km/h 96 % 0.0 mm 0 W/m2
04:40 3.2 °C 2.6 °C 1016.5 hPa Calm   3.2 km/h 96 % 0.0 mm 0 W/m2
04:45 3.1 °C 2.5 °C 1016.5 hPa Calm   1.6 km/h 96 % 0.0 mm 0 W/m2
04:50 3.0 °C 2.4 °C 1016.5 hPa Calm   1.6 km/h 96 % 0.0 mm 0 W/m2
04:55 3.1 °C 2.5 °C 1016.5 hPa Calm   1.6 km/h 96 % 0.0 mm 0 W/m2
05:00 3.2 °C 2.6 °C 1016.5 hPa Calm   1.6 km/h 96 % 0.0 mm 0 W/m2
05:05 3.1 °C 2.5 °C 1016.5 hPa Calm   1.6 km/h 96 % 0.0 mm 0 W/m2
05:10 3.0 °C 2.4 °C 1016.1 hPa Calm   1.6 km/h 96 % 0.0 mm 0 W/m2
05:20 3.4 °C 2.8 °C 1016.1 hPa Calm   1.6 km/h 96 % 0.0 mm 0 W/m2
05:25 3.2 °C 2.6 °C 1016.1 hPa Calm   1.6 km/h 96 % 0.0 mm 0 W/m2
05:30 3.1 °C 2.5 °C 1016.1 hPa Calm   1.6 km/h 96 % 0.0 mm 0 W/m2
05:35 3.3 °C 2.7 °C 1016.1 hPa Calm   1.6 km/h 96 % 0.0 mm 0 W/m2
05:40 3.3 °C 2.7 °C 1015.8 hPa Calm   1.6 km/h 96 % 0.0 mm 0 W/m2
05:45 3.4 °C 3.0 °C 1015.8 hPa Calm     97 % 0.0 mm 0 W/m2
05:50 3.4 °C 2.9 °C 1015.8 hPa Calm   1.6 km/h 96 % 0.0 mm 0 W/m2
05:55 3.6 °C 3.0 °C 1015.8 hPa Calm   1.6 km/h 96 % 0.0 mm 0 W/m2
06:05 3.7 °C 3.2 °C 1015.8 hPa SE 1.6 km/h 4.8 km/h 97 % 0.0 mm 0 W/m2
06:10 4.0 °C 3.6 °C 1015.8 hPa ESE 1.6 km/h 4.8 km/h 97 % 0.0 mm 0 W/m2
06:15 4.2 °C 3.7 °C 1015.8 hPa ESE 3.2 km/h 4.8 km/h 97 % 0.0 mm 0 W/m2
06:20 4.4 °C 4.0 °C 1015.8 hPa Calm   4.8 km/h 97 % 0.0 mm 0 W/m2
06:25 4.7 °C 4.2 °C 1015.8 hPa SE 3.2 km/h 4.8 km/h 97 % 0.0 mm 0 W/m2
06:30 4.7 °C 4.2 °C 1015.5 hPa SE 1.6 km/h 4.8 km/h 97 % 0.0 mm 0 W/m2
06:35 4.6 °C 4.2 °C 1015.5 hPa SE 3.2 km/h 4.8 km/h 97 % 0.0 mm 0 W/m2
06:40 4.6 °C 4.1 °C 1015.5 hPa SE 3.2 km/h 4.8 km/h 97 % 0.0 mm 0 W/m2
06:50 4.3 °C 3.8 °C 1015.5 hPa Calm   4.8 km/h 96 % 0.0 mm 0 W/m2
06:55 4.3 °C 3.9 °C 1015.5 hPa Calm   6.4 km/h 97 % 0.0 mm 0 W/m2
07:00 4.4 °C 4.0 °C 1015.5 hPa SE 1.6 km/h 6.4 km/h 97 % 0.0 mm 5 W/m2
07:05 4.4 °C 4.0 °C 1015.5 hPa SE 3.2 km/h 6.4 km/h 97 % 0.0 mm 7 W/m2
07:10 4.5 °C 4.1 °C 1015.5 hPa SSE 3.2 km/h 6.4 km/h 97 % 0.0 mm 11 W/m2
07:15 4.7 °C 4.2 °C 1015.5 hPa Calm   6.4 km/h 97 % 0.0 mm 12 W/m2
07:20 4.7 °C 4.3 °C 1015.5 hPa SE 1.6 km/h 6.4 km/h 97 % 0.0 mm 16 W/m2
07:25 4.7 °C 4.3 °C 1015.5 hPa Calm   4.8 km/h 97 % 0.0 mm 19 W/m2
07:35 4.8 °C 4.4 °C 1015.5 hPa SE 3.2 km/h 6.4 km/h 97 % 0.0 mm 23 W/m2
07:40 4.9 °C 4.5 °C 1015.5 hPa Calm   6.4 km/h 97 % 0.0 mm 26 W/m2
07:45 5.0 °C 4.6 °C 1015.5 hPa SE 1.6 km/h 6.4 km/h 97 % 0.0 mm 28 W/m2
07:50 5.1 °C 4.6 °C 1015.5 hPa Calm   6.4 km/h 97 % 0.0 mm 32 W/m2
07:55 5.2 °C 4.7 °C 1015.5 hPa SE 3.2 km/h 6.4 km/h 97 % 0.0 mm 33 W/m2
08:00 5.4 °C 5.0 °C 1015.5 hPa SSE 6.4 km/h 8.0 km/h 97 % 0.0 mm 33 W/m2
08:05 5.6 °C 5.2 °C 1015.5 hPa SE 1.6 km/h 8.0 km/h 97 % 0.0 mm 35 W/m2
08:10 5.8 °C 5.4 °C 1015.5 hPa SSE 6.4 km/h 9.7 km/h 97 % 0.0 mm 37 W/m2
08:20 6.3 °C 5.8 °C 1015.1 hPa SE 1.6 km/h 11.3 km/h 97 % 0.0 mm 42 W/m2
08:25 6.4 °C 6.0 °C 1015.1 hPa South 8.0 km/h 9.7 km/h 97 % 0.0 mm 125 W/m2
08:30 6.6 °C 6.0 °C 1015.1 hPa SSE 4.8 km/h 11.3 km/h 96 % 0.0 mm 211 W/m2
08:35 6.9 °C 6.4 °C 1015.1 hPa SSE 3.2 km/h 12.9 km/h 96 % 0.0 mm 225 W/m2
08:40 7.2 °C 6.6 °C 1015.1 hPa ESE 6.4 km/h 12.9 km/h 96 % 0.0 mm 239 W/m2
08:45 7.4 °C 6.8 °C 1015.1 hPa SE 3.2 km/h 11.3 km/h 96 % 0.0 mm 255 W/m2
08:50 7.8 °C 7.2 °C 1015.1 hPa SSE 3.2 km/h 11.3 km/h 96 % 0.0 mm 269 W/m2
08:55 8.0 °C 7.2 °C 1015.1 hPa SE 6.4 km/h 11.3 km/h 95 % 0.0 mm 279 W/m2
09:05 8.9 °C 8.0 °C 1015.1 hPa SSE 4.8 km/h 11.3 km/h 94 % 0.0 mm 315 W/m2
09:10 9.2 °C 8.0 °C 1015.1 hPa SE 4.8 km/h 14.5 km/h 92 % 0.0 mm 330 W/m2
09:15 9.6 °C 8.2 °C 1015.1 hPa SE 6.4 km/h 14.5 km/h 91 % 0.0 mm 341 W/m2
09:20 9.9 °C 8.2 °C 1015.1 hPa SE 4.8 km/h 14.5 km/h 89 % 0.0 mm 357 W/m2
09:25 10.1 °C 8.2 °C 1014.8 hPa SSE 8.0 km/h 14.5 km/h 88 % 0.0 mm 371 W/m2
09:30 10.5 °C 8.3 °C 1014.8 hPa SE 4.8 km/h 11.3 km/h 86 % 0.0 mm 387 W/m2
09:35 10.8 °C 8.2 °C 1014.8 hPa SSE 11.3 km/h 14.5 km/h 84 % 0.0 mm 403 W/m2
09:40 11.0 °C 7.9 °C 1014.8 hPa South 4.8 km/h 16.1 km/h 81 % 0.0 mm 417 W/m2
09:50 11.5 °C 8.0 °C 1014.8 hPa SSE 16.1 km/h 20.9 km/h 79 % 0.0 mm 446 W/m2
09:55 11.7 °C 8.0 °C 1014.8 hPa ESE 3.2 km/h 17.7 km/h 78 % 0.0 mm 462 W/m2
10:00 11.9 °C 7.8 °C 1014.8 hPa ESE 16.1 km/h 20.9 km/h 76 % 0.0 mm 476 W/m2
10:05 12.1 °C 8.0 °C 1014.8 hPa SE 11.3 km/h 20.9 km/h 76 % 0.0 mm 490 W/m2
10:10 12.2 °C 7.7 °C 1014.4 hPa SE 8.0 km/h 19.3 km/h 74 % 0.0 mm 504 W/m2
10:15 12.4 °C 8.1 °C 1014.4 hPa South 4.8 km/h 19.3 km/h 75 % 0.0 mm 522 W/m2
10:20 12.7 °C 7.9 °C 1014.4 hPa South 9.7 km/h 19.3 km/h 73 % 0.0 mm 538 W/m2
10:25 13.2 °C 8.6 °C 1014.4 hPa South 6.4 km/h 19.3 km/h 74 % 0.0 mm 547 W/m2
10:35 13.4 °C 8.1 °C 1014.4 hPa SSE 3.2 km/h 19.3 km/h 70 % 0.0 mm 573 W/m2
10:45 13.9 °C 7.9 °C 1014.1 hPa SE 17.7 km/h 24.1 km/h 67 % 0.0 mm 601 W/m2
10:50 13.9 °C 7.9 °C 1014.1 hPa South 8.0 km/h 24.1 km/h 67 % 0.0 mm 619 W/m2
10:55 14.1 °C 7.6 °C 1014.1 hPa South 16.1 km/h 25.7 km/h 65 % 0.0 mm 628 W/m2
11:00 14.2 °C 7.3 °C 1014.1 hPa SSE 8.0 km/h 25.7 km/h 63 % 0.0 mm 640 W/m2
11:05 14.5 °C 7.5 °C 1014.1 hPa South 4.8 km/h 19.3 km/h 63 % 0.0 mm 643 W/m2
11:10 14.8 °C 7.6 °C 1013.8 hPa South 8.0 km/h 17.7 km/h 62 % 0.0 mm 664 W/m2
11:20 14.9 °C 6.7 °C 1014.1 hPa South 8.0 km/h 19.3 km/h 58 % 0.0 mm 687 W/m2
11:25 15.0 °C 6.8 °C 1013.8 hPa ESE 11.3 km/h 19.3 km/h 58 % 0.0 mm 707 W/m2
11:30 15.3 °C 7.1 °C 1013.8 hPa South 16.1 km/h 17.7 km/h 58 % 0.0 mm 747 W/m2
11:35 15.2 °C 6.0 °C 1013.8 hPa South 11.3 km/h 20.9 km/h 54 % 0.0 mm 729 W/m2
11:40 15.4 °C 6.4 °C 1013.8 hPa SE 9.7 km/h 20.9 km/h 55 % 0.0 mm 761 W/m2
11:45 15.6 °C 6.6 °C 1013.4 hPa SSE 8.0 km/h 22.5 km/h 55 % 0.0 mm 763 W/m2
11:50 15.8 °C 6.5 °C 1013.4 hPa South 11.3 km/h 22.5 km/h 54 % 0.0 mm 810 W/m2
11:55 15.6 °C 6.1 °C 1013.4 hPa SSE 12.9 km/h 22.5 km/h 53 % 0.0 mm 752 W/m2
12:00 15.8 °C 7.3 °C 1013.4 hPa South 12.9 km/h 20.9 km/h 57 % 0.0 mm 824 W/m2
12:10 16.1 °C 6.2 °C 1013.1 hPa South 14.5 km/h 24.1 km/h 52 % 0.0 mm 837 W/m2
12:15 15.6 °C 5.2 °C 1013.1 hPa SSE 11.3 km/h 25.7 km/h 50 % 0.0 mm 183 W/m2
12:20 15.2 °C 5.1 °C 1013.1 hPa SSE 4.8 km/h 25.7 km/h 51 % 0.0 mm 933 W/m2
12:25 16.5 °C 5.7 °C 1013.1 hPa SE 14.5 km/h 24.1 km/h 49 % 0.0 mm 930 W/m2
12:30 15.8 °C 4.8 °C 1013.1 hPa South 9.7 km/h 24.1 km/h 48 % 0.0 mm 951 W/m2
12:35 15.9 °C 4.9 °C 1013.1 hPa SE 11.3 km/h 22.5 km/h 48 % 0.0 mm 304 W/m2
12:40 15.7 °C 5.0 °C 1013.1 hPa ENE 8.0 km/h 22.5 km/h 49 % 0.0 mm 967 W/m2
12:50 16.2 °C 5.1 °C 1012.8 hPa SSE 14.5 km/h 24.1 km/h 48 % 0.0 mm 199 W/m2
12:55 16.3 °C 5.6 °C 1012.8 hPa ESE 20.9 km/h 20.9 km/h 49 % 0.0 mm 993 W/m2
13:00 16.1 °C 4.4 °C 1012.4 hPa SSW 4.8 km/h 22.5 km/h 46 % 0.0 mm 330 W/m2
13:05 15.6 °C 5.4 °C 1012.4 hPa ESE 6.4 km/h 22.5 km/h 51 % 0.0 mm 234 W/m2
13:10 16.4 °C 4.7 °C 1012.4 hPa WNW 12.9 km/h 27.4 km/h 46 % 0.0 mm 916 W/m2
13:15 16.8 °C 4.8 °C 1012.1 hPa SSW 12.9 km/h 27.4 km/h 45 % 0.0 mm 967 W/m2
13:20 17.2 °C 4.8 °C 1012.1 hPa SE 22.5 km/h 25.7 km/h 44 % 0.0 mm 976 W/m2
13:25 17.1 °C 5.6 °C 1012.1 hPa ESE 16.1 km/h 25.7 km/h 47 % 0.0 mm 1002 W/m2
13:35 16.4 °C 5.7 °C 1012.1 hPa SSE 9.7 km/h 20.9 km/h 49 % 0.0 mm 984 W/m2
13:40 17.3 °C 5.6 °C 1011.7 hPa South 12.9 km/h 32.2 km/h 46 % 0.0 mm 956 W/m2
13:45 17.4 °C 5.3 °C 1011.7 hPa SSE 8.0 km/h 32.2 km/h 45 % 0.0 mm 223 W/m2
13:50 17.4 °C 5.0 °C 1011.7 hPa SE 9.7 km/h 25.7 km/h 44 % 0.0 mm 970 W/m2
13:55 17.2 °C 4.9 °C 1011.7 hPa SSE 8.0 km/h 25.7 km/h 44 % 0.0 mm 988 W/m2
14:00 18.1 °C 6.3 °C 1011.4 hPa SSE 9.7 km/h 24.1 km/h 46 % 0.0 mm 976 W/m2
14:05 18.2 °C 4.7 °C 1011.4 hPa SSE 4.8 km/h 24.1 km/h 41 % 0.0 mm 981 W/m2
14:10 18.6 °C 7.0 °C 1011.4 hPa SSE 6.4 km/h 24.1 km/h 47 % 0.0 mm 983 W/m2
14:20 18.2 °C 5.4 °C 1011.1 hPa South 19.3 km/h 24.1 km/h 43 % 0.0 mm 981 W/m2
14:25 18.2 °C 5.0 °C 1011.1 hPa SE 11.3 km/h 27.4 km/h 42 % 0.0 mm 1048 W/m2
14:30 18.2 °C 4.4 °C 1011.1 hPa SSW 24.1 km/h 30.6 km/h 40 % 0.0 mm 977 W/m2
14:35 18.3 °C 4.8 °C 1011.1 hPa South 12.9 km/h 30.6 km/h 41 % 0.0 mm 926 W/m2
14:40 17.8 °C 4.0 °C 1010.7 hPa SE 16.1 km/h 29.0 km/h 40 % 0.0 mm 223 W/m2
14:45 16.8 °C 4.1 °C 1010.7 hPa South 17.7 km/h 29.0 km/h 43 % 0.0 mm 200 W/m2
14:50 17.5 °C 5.1 °C 1010.7 hPa SSE 9.7 km/h 25.7 km/h 44 % 0.0 mm 981 W/m2
14:55 18.2 °C 4.0 °C 1010.7 hPa SE 6.4 km/h 27.4 km/h 39 % 0.0 mm 962 W/m2
15:05 17.3 °C 3.9 °C 1010.4 hPa SSE 11.3 km/h 22.5 km/h 41 % 0.0 mm 287 W/m2
15:10 17.7 °C 4.2 °C 1010.4 hPa SE 19.3 km/h 27.4 km/h 41 % 0.0 mm 230 W/m2
15:15 17.2 °C 4.2 °C 1010.4 hPa ESE 11.3 km/h 27.4 km/h 42 % 0.0 mm 253 W/m2
15:20 17.7 °C 4.9 °C 1010.4 hPa SSE 4.8 km/h 27.4 km/h 43 % 0.0 mm 921 W/m2
15:25 17.2 °C 3.8 °C 1010.4 hPa South 12.9 km/h 19.3 km/h 41 % 0.0 mm 216 W/m2
15:30 16.8 °C 3.4 °C 1010.0 hPa SSE 4.8 km/h 19.3 km/h 41 % 0.0 mm 172 W/m2
15:35 17.2 °C 4.5 °C 1010.0 hPa SSE 17.7 km/h 19.3 km/h 43 % 0.0 mm 956 W/m2
15:40 17.1 °C 3.7 °C 1010.0 hPa SE 22.5 km/h 22.5 km/h 41 % 0.0 mm 176 W/m2
15:50 17.6 °C 5.2 °C 1010.0 hPa East 20.9 km/h 24.1 km/h 44 % 0.0 mm 882 W/m2
15:55 17.9 °C 3.8 °C 1009.7 hPa SSE 12.9 km/h 22.5 km/h 39 % 0.0 mm 882 W/m2
16:00 17.6 °C 3.8 °C 1009.7 hPa SSE 6.4 km/h 24.1 km/h 40 % 0.0 mm 236 W/m2
16:05 18.2 °C 4.4 °C 1009.7 hPa SSE 12.9 km/h 24.1 km/h 40 % 0.0 mm 896 W/m2
16:10 18.8 °C 4.2 °C 1009.4 hPa SSE 17.7 km/h 22.5 km/h 38 % 0.0 mm 905 W/m2
16:15 18.8 °C 3.8 °C 1009.4 hPa ESE 8.0 km/h 22.5 km/h 37 % 0.0 mm 821 W/m2
16:20 18.7 °C 3.3 °C 1009.4 hPa SSE 11.3 km/h 24.1 km/h 36 % 0.0 mm 805 W/m2
16:25 19.4 °C 5.1 °C 1009.4 hPa South 4.8 km/h 24.1 km/h 39 % 0.0 mm 823 W/m2
16:35 18.4 °C 4.6 °C 1009.0 hPa South 12.9 km/h 24.1 km/h 40 % 0.0 mm 717 W/m2
16:40 18.8 °C 3.8 °C 1009.0 hPa SE 6.4 km/h 24.1 km/h 37 % 0.0 mm 735 W/m2
16:45 18.4 °C 6.6 °C 1009.0 hPa WNW 8.0 km/h 17.7 km/h 46 % 0.0 mm 715 W/m2
16:50 17.9 °C 6.8 °C 1009.0 hPa East 3.2 km/h 12.9 km/h 48 % 0.0 mm 679 W/m2
16:55 17.9 °C 5.5 °C 1008.7 hPa SSW 16.1 km/h 19.3 km/h 44 % 0.0 mm 668 W/m2
17:00 18.5 °C 4.6 °C 1008.7 hPa SE 9.7 km/h 19.3 km/h 40 % 0.0 mm 696 W/m2
17:05 17.4 °C 7.2 °C 1008.7 hPa WSW 1.6 km/h 17.7 km/h 51 % 0.0 mm 656 W/m2
17:10 17.3 °C 7.9 °C 1008.7 hPa South 12.9 km/h 16.1 km/h 54 % 0.0 mm 612 W/m2
17:20 17.3 °C 9.4 °C 1008.7 hPa SW 11.3 km/h 20.9 km/h 60 % 0.0 mm 619 W/m2
17:25 17.0 °C 7.6 °C 1008.4 hPa SSW 9.7 km/h 17.7 km/h 54 % 0.0 mm 615 W/m2
17:30 16.6 °C 7.7 °C 1008.4 hPa WSW 9.7 km/h 17.7 km/h 56 % 0.0 mm 169 W/m2
17:35 16.8 °C 7.4 °C 1008.4 hPa SW 6.4 km/h 16.1 km/h 54 % 0.0 mm 622 W/m2
17:40 17.2 °C 6.6 °C 1008.4 hPa South 9.7 km/h 22.5 km/h 50 % 0.0 mm 548 W/m2
17:45 17.3 °C 6.5 °C 1008.0 hPa WNW 6.4 km/h 22.5 km/h 49 % 0.0 mm 508 W/m2
17:50 17.3 °C 7.1 °C 1008.0 hPa SW 3.2 km/h 19.3 km/h 51 % 0.0 mm 464 W/m2
17:55 17.6 °C 6.4 °C 1008.0 hPa WSW 4.8 km/h 16.1 km/h 48 % 0.0 mm 464 W/m2
18:05 17.3 °C 6.2 °C 1008.0 hPa SW 1.6 km/h 20.9 km/h 48 % 0.0 mm 517 W/m2
18:10 17.3 °C 5.5 °C 1008.0 hPa SSW 11.3 km/h 20.9 km/h 46 % 0.0 mm 141 W/m2
18:15 16.7 °C 5.3 °C 1007.7 hPa SSW 4.8 km/h 17.7 km/h 47 % 0.0 mm 209 W/m2
18:20 16.7 °C 5.3 °C 1007.7 hPa SW 8.0 km/h 17.7 km/h 47 % 0.0 mm 309 W/m2
18:25 16.9 °C 5.5 °C 1007.7 hPa South 9.7 km/h 14.5 km/h 47 % 0.0 mm 290 W/m2
18:30 17.1 °C 6.0 °C 1007.7 hPa South 14.5 km/h 16.1 km/h 48 % 0.0 mm 230 W/m2
18:35 17.0 °C 5.6 °C 1007.7 hPa WSW 6.4 km/h 16.1 km/h 47 % 0.0 mm 250 W/m2
18:40 16.9 °C 6.4 °C 1007.7 hPa SSW 3.2 km/h 16.1 km/h 50 % 0.0 mm 218 W/m2
18:50 16.8 °C 6.0 °C 1007.3 hPa SSW 4.8 km/h 14.5 km/h 49 % 0.0 mm 243 W/m2
18:55 17.1 °C 6.3 °C 1007.3 hPa SSW 8.0 km/h 14.5 km/h 49 % 0.0 mm 362 W/m2
19:00 17.5 °C 5.7 °C 1007.3 hPa South 4.8 km/h 19.3 km/h 46 % 0.0 mm 473 W/m2
19:05 17.8 °C 5.0 °C 1007.3 hPa SW 11.3 km/h 19.3 km/h 43 % 0.0 mm 441 W/m2
19:10 18.0 °C 5.9 °C 1007.0 hPa SW 8.0 km/h 19.3 km/h 45 % 0.0 mm 420 W/m2
19:15 17.7 °C 5.3 °C 1007.0 hPa SSW 12.9 km/h 19.3 km/h 44 % 0.0 mm 153 W/m2
19:20 17.2 °C 5.4 °C 1007.0 hPa SSW 11.3 km/h 19.3 km/h 46 % 0.0 mm 102 W/m2
19:25 16.8 °C 4.8 °C 1007.0 hPa SSW 8.0 km/h 20.9 km/h 45 % 0.0 mm 176 W/m2
19:35 16.4 °C 3.8 °C 1007.0 hPa South 11.3 km/h 20.9 km/h 43 % 0.0 mm 67 W/m2
19:40 16.2 °C 3.9 °C 1007.0 hPa SW 3.2 km/h 20.9 km/h 44 % 0.0 mm 77 W/m2
19:45 16.3 °C 4.3 °C 1007.0 hPa SSW 16.1 km/h 19.3 km/h 45 % 0.0 mm 204 W/m2
19:50 16.3 °C 4.3 °C 1007.0 hPa SSW 9.7 km/h 19.3 km/h 45 % 0.0 mm 121 W/m2
19:55 16.1 °C 4.5 °C 1007.0 hPa SW 9.7 km/h 19.3 km/h 46 % 0.0 mm 69 W/m2
20:00 15.9 °C 4.6 °C 1006.7 hPa South 9.7 km/h 19.3 km/h 47 % 0.0 mm 65 W/m2
20:05 15.8 °C 4.5 °C 1006.7 hPa South 9.7 km/h 19.3 km/h 47 % 0.0 mm 69 W/m2
20:10 15.7 °C 4.7 °C 1006.7 hPa SW 3.2 km/h 16.1 km/h 48 % 0.0 mm 67 W/m2
20:20 15.7 °C 3.8 °C 1006.7 hPa South 16.1 km/h 17.7 km/h 45 % 0.0 mm 51 W/m2
20:30 15.5 °C 3.6 °C 1006.7 hPa South 4.8 km/h 17.7 km/h 45 % 0.0 mm 39 W/m2
20:35 15.5 °C 3.6 °C 1006.7 hPa SSW 11.3 km/h 17.7 km/h 45 % 0.0 mm 40 W/m2
20:40 15.4 °C 3.6 °C 1006.7 hPa South 6.4 km/h 17.7 km/h 45 % 0.0 mm 37 W/m2
20:45 15.3 °C 3.8 °C 1006.7 hPa South 11.3 km/h 16.1 km/h 46 % 0.0 mm 30 W/m2
20:50 15.2 °C 3.7 °C 1006.7 hPa South 6.4 km/h 16.1 km/h 46 % 0.0 mm 21 W/m2
20:55 15.2 °C 3.7 °C 1006.7 hPa SSW 12.9 km/h 14.5 km/h 46 % 0.0 mm 16 W/m2
21:05 15.2 °C 3.6 °C 1006.3 hPa SSE 4.8 km/h 12.9 km/h 46 % 0.0 mm 9 W/m2
21:10 14.9 °C 3.7 °C 1006.3 hPa SSE 3.2 km/h 11.3 km/h 47 % 0.0 mm 5 W/m2
21:15 14.8 °C 3.9 °C 1006.3 hPa ESE 1.6 km/h 9.7 km/h 48 % 0.0 mm 0 W/m2
21:20 14.6 °C 4.0 °C 1006.0 hPa SSE 4.8 km/h 8.0 km/h 49 % 0.0 mm 0 W/m2
21:25 14.3 °C 4.3 °C 1006.0 hPa SSE 1.6 km/h 8.0 km/h 51 % 0.0 mm 0 W/m2
21:30 14.1 °C 4.4 °C 1006.0 hPa ESE 1.6 km/h 6.4 km/h 52 % 0.0 mm 0 W/m2
21:35 13.9 °C 4.2 °C 1006.0 hPa ESE 1.6 km/h 6.4 km/h 52 % 0.0 mm 0 W/m2
21:40 13.9 °C 4.5 °C 1006.0 hPa Calm   4.8 km/h 53 % 0.0 mm 0 W/m2
21:50 13.4 °C 5.0 °C 1005.6 hPa Calm   3.2 km/h 57 % 0.0 mm 0 W/m2
21:55 13.2 °C 4.8 °C 1005.6 hPa Calm   4.8 km/h 57 % 0.0 mm 0 W/m2
22:00 12.8 °C 5.0 °C 1005.6 hPa Calm   4.8 km/h 59 % 0.0 mm 0 W/m2
22:05 12.6 °C 5.2 °C 1005.6 hPa Calm   3.2 km/h 61 % 0.0 mm 0 W/m2
22:10 12.2 °C 5.3 °C 1005.6 hPa Calm   3.2 km/h 63 % 0.0 mm 0 W/m2
22:15 12.1 °C 5.2 °C 1005.6 hPa Calm   3.2 km/h 63 % 0.0 mm 0 W/m2
22:20 12.1 °C 5.4 °C 1005.6 hPa Calm   1.6 km/h 64 % 0.0 mm 0 W/m2
22:25 11.7 °C 5.4 °C 1005.3 hPa ESE 1.6 km/h 1.6 km/h 65 % 0.0 mm 0 W/m2
22:35 10.7 °C 5.1 °C 1005.3 hPa Calm   1.6 km/h 68 % 0.0 mm 0 W/m2
22:40 10.4 °C 5.1 °C 1005.3 hPa Calm   1.6 km/h 70 % 0.0 mm 0 W/m2
22:45 10.1 °C 5.1 °C 1005.3 hPa Calm   1.6 km/h 71 % 0.0 mm 0 W/m2
22:50 9.9 °C 5.1 °C 1005.3 hPa Calm   1.6 km/h 72 % 0.0 mm 0 W/m2
22:55 9.6 °C 5.0 °C 1005.3 hPa Calm   1.6 km/h 73 % 0.0 mm 0 W/m2
23:00 9.4 °C 5.0 °C 1005.0 hPa Calm   1.6 km/h 74 % 0.0 mm 0 W/m2
23:05 9.2 °C 4.8 °C 1005.0 hPa Calm   1.6 km/h 74 % 0.0 mm 0 W/m2
23:10 9.0 °C 4.8 °C 1005.0 hPa Calm   1.6 km/h 75 % 0.0 mm 0 W/m2
23:20 8.9 °C 5.1 °C 1005.0 hPa Calm   1.6 km/h 77 % 0.0 mm 0 W/m2
23:25 8.9 °C 4.7 °C 1005.0 hPa Calm   1.6 km/h 75 % 0.0 mm 0 W/m2
23:30 8.8 °C 4.6 °C 1005.0 hPa ESE 1.6 km/h 1.6 km/h 75 % 0.0 mm 0 W/m2
23:35 8.9 °C 4.7 °C 1004.6 hPa Calm   1.6 km/h 75 % 0.0 mm 0 W/m2
23:40 8.8 °C 4.4 °C 1004.6 hPa Calm   3.2 km/h 74 % 0.0 mm 0 W/m2
23:45 8.4 °C 4.5 °C 1004.6 hPa Calm   3.2 km/h 76 % 0.0 mm 0 W/m2
23:50 8.3 °C 4.3 °C 1004.6 hPa Calm   1.6 km/h 76 % 0.0 mm 0 W/m2
23:55 8.4 °C 4.4 °C 1004.6 hPa ESE 4.8 km/h 6.4 km/h 76 % 0.0 mm 0 W/m2
Avec l'autorisation de Weather Underground - 1.5 mb